createdAt,value
2018-03-07T00:00:11.977Z,58.58
2018-03-07T00:02:40.248Z,58.34
2018-03-07T00:05:09.272Z,58.30
2018-03-07T00:07:37.547Z,58.21
2018-03-07T00:10:06.568Z,58.20
2018-03-07T00:12:34.836Z,58.09
2018-03-07T00:15:03.858Z,58.08
2018-03-07T00:17:32.132Z,58.08
2018-03-07T00:20:01.156Z,58.30
2018-03-07T00:22:29.423Z,58.55
2018-03-07T00:24:58.446Z,58.44
2018-03-07T00:27:26.719Z,58.71
2018-03-07T00:29:55.744Z,58.89
2018-03-07T00:32:24.015Z,58.85
2018-03-07T00:34:53.040Z,58.78
2018-03-07T00:37:21.315Z,58.64
2018-03-07T00:39:50.336Z,58.71
2018-03-07T00:42:18.607Z,58.82
2018-03-07T00:44:47.631Z,59.37
2018-03-07T00:47:15.900Z,59.37
2018-03-07T00:49:44.920Z,59.20
2018-03-07T00:52:13.191Z,59.19
2018-03-07T00:54:42.219Z,59.01
2018-03-07T00:57:10.480Z,58.89
2018-03-07T00:59:38.743Z,58.95
2018-03-07T01:02:07.007Z,58.75
2018-03-07T01:04:35.267Z,58.68
2018-03-07T01:07:03.577Z,58.76
2018-03-07T01:09:31.815Z,58.98
2018-03-07T01:12:00.076Z,58.98
2018-03-07T01:14:28.342Z,59.17
2018-03-07T01:16:56.595Z,59.27
2018-03-07T01:19:25.632Z,59.36
2018-03-07T01:21:53.886Z,59.37
2018-03-07T01:24:22.920Z,59.31
2018-03-07T01:26:51.177Z,59.25
2018-03-07T01:29:20.209Z,59.11
2018-03-07T01:31:48.464Z,59.08
2018-03-07T01:34:16.727Z,59.18
2018-03-07T01:36:44.988Z,59.15
2018-03-07T01:39:13.260Z,59.07
2018-03-07T01:41:41.527Z,58.98
2018-03-07T01:44:10.563Z,59.11
2018-03-07T01:46:38.820Z,59.10
2018-03-07T01:49:07.855Z,59.19
2018-03-07T01:51:53.891Z,59.08
2018-03-07T01:54:22.234Z,59.24
2018-03-07T01:56:51.255Z,59.48
2018-03-07T01:59:19.520Z,59.71
2018-03-07T02:01:48.547Z,59.51
2018-03-07T02:04:16.820Z,59.33
2018-03-07T02:06:45.853Z,59.27
2018-03-07T02:09:14.892Z,59.31
2018-03-07T02:11:43.154Z,59.26
2018-03-07T02:14:11.451Z,59.15
2018-03-07T02:16:39.714Z,59.13
2018-03-07T02:19:07.988Z,59.06
2018-03-07T02:21:37.015Z,59.22
2018-03-07T02:24:05.287Z,59.05
2018-03-07T02:26:33.547Z,59.08
2018-03-07T02:29:01.815Z,59.03
2018-03-07T02:31:30.089Z,59.16
2018-03-07T02:33:58.357Z,59.19
2018-03-07T02:36:33.267Z,59.11
2018-03-07T02:39:02.312Z,59.15
2018-03-07T02:41:30.575Z,59.22
2018-03-07T02:43:59.613Z,59.17
2018-03-07T02:46:27.879Z,59.08
2018-03-07T02:48:56.160Z,59.12
2018-03-07T02:51:25.189Z,59.13
2018-03-07T02:53:53.531Z,59.23
2018-03-07T02:56:22.493Z,59.15
2018-03-07T02:58:50.769Z,58.88
2018-03-07T03:01:19.032Z,58.81
2018-03-07T03:03:48.064Z,58.80
2018-03-07T03:06:16.330Z,58.98
2018-03-07T03:08:45.359Z,58.91
2018-03-07T03:11:13.621Z,58.99
2018-03-07T03:13:42.659Z,58.92
2018-03-07T03:16:10.933Z,59.10
2018-03-07T03:18:39.203Z,59.23
2018-03-07T03:21:08.227Z,59.29
2018-03-07T03:23:36.499Z,59.29
2018-03-07T03:26:05.525Z,59.40
2018-03-07T03:28:33.803Z,59.57
2018-03-07T03:31:02.065Z,59.65
2018-03-07T03:33:30.353Z,60.15
2018-03-07T03:35:58.616Z,60.63
2018-03-07T03:38:26.888Z,60.68
2018-03-07T03:40:55.151Z,60.58
2018-03-07T03:43:23.436Z,61.38
2018-03-07T03:45:51.695Z,62.72
2018-03-07T03:48:19.972Z,62.30
2018-03-07T03:50:48.316Z,62.87
2018-03-07T03:53:16.583Z,62.41
2018-03-07T03:55:45.611Z,61.88
2018-03-07T03:58:13.893Z,61.54
2018-03-07T04:00:42.156Z,61.38
2018-03-07T04:03:11.203Z,61.09
2018-03-07T04:05:39.463Z,61.47
2018-03-07T04:08:08.516Z,62.00
2018-03-07T04:10:36.783Z,61.88
2018-03-07T04:13:05.832Z,62.25
2018-03-07T04:15:34.087Z,62.42
2018-03-07T04:18:02.356Z,62.30
2018-03-07T04:20:30.643Z,62.52
2018-03-07T04:22:58.899Z,62.55
2018-03-07T04:25:27.993Z,63.23
2018-03-07T04:27:56.214Z,63.40
2018-03-07T04:30:25.252Z,63.26
2018-03-07T04:32:53.520Z,64.07
2018-03-07T04:35:21.796Z,64.72
2018-03-07T04:37:50.819Z,64.30
2018-03-07T04:40:19.099Z,63.70
2018-03-07T04:42:47.367Z,63.37
2018-03-07T04:45:16.409Z,62.91
2018-03-07T04:47:45.309Z,62.54
2018-03-07T04:50:13.578Z,62.76
2018-03-07T04:52:41.844Z,62.90
2018-03-07T04:55:10.116Z,62.62
2018-03-07T04:57:38.392Z,63.38
2018-03-07T05:00:06.668Z,63.84
2018-03-07T05:02:35.003Z,63.78
2018-03-07T05:05:03.249Z,63.40
2018-03-07T05:07:31.511Z,63.46
2018-03-07T05:09:59.783Z,63.62
2018-03-07T05:12:28.807Z,63.68
2018-03-07T05:14:57.847Z,63.77
2018-03-07T05:17:26.312Z,63.74
2018-03-07T05:19:54.584Z,64.26
2018-03-07T05:22:22.848Z,64.59
2018-03-07T05:24:51.119Z,65.05
2018-03-07T05:27:19.377Z,64.35
2018-03-07T05:29:47.648Z,64.69
2018-03-07T05:32:15.906Z,63.64
2018-03-07T05:34:44.947Z,62.72
2018-03-07T05:37:13.207Z,62.26
2018-03-07T05:39:42.236Z,61.64
2018-03-07T05:42:10.511Z,60.96
2018-03-07T05:44:39.556Z,60.71
2018-03-07T05:47:07.812Z,60.39
2018-03-07T05:49:36.084Z,59.97
2018-03-07T05:52:05.111Z,59.57
2018-03-07T05:54:34.569Z,59.37
2018-03-07T05:57:02.823Z,59.16
2018-03-07T05:59:31.097Z,59.09
2018-03-07T06:02:00.127Z,58.80
2018-03-07T06:04:28.402Z,58.54
2018-03-07T06:06:56.665Z,58.25
2018-03-07T06:09:25.728Z,58.04
2018-03-07T06:11:53.988Z,57.87
2018-03-07T06:14:22.258Z,57.72
2018-03-07T06:16:51.285Z,57.52
2018-03-07T06:19:19.551Z,57.38
2018-03-07T06:21:48.584Z,57.28
2018-03-07T06:26:52.320Z,57.64
2018-03-07T06:29:20.546Z,58.24
2018-03-07T06:31:48.808Z,58.29
2018-03-07T06:34:17.080Z,58.18
2018-03-07T06:36:45.339Z,59.58
2018-03-07T06:39:13.616Z,60.01
2018-03-07T06:41:42.865Z,59.44
2018-03-07T06:44:11.903Z,59.06
2018-03-07T06:46:40.164Z,59.27
2018-03-07T06:49:08.434Z,59.74
2018-03-07T06:51:37.467Z,60.44
2018-03-07T06:54:05.744Z,60.57
2018-03-07T06:56:34.007Z,60.71
2018-03-07T06:59:02.272Z,60.80
2018-03-07T07:01:30.532Z,61.05
2018-03-07T07:03:58.791Z,61.09
2018-03-07T07:06:27.068Z,60.81
2018-03-07T07:08:56.092Z,60.02
2018-03-07T07:11:25.267Z,59.42
2018-03-07T07:13:53.528Z,58.85
2018-03-07T07:16:21.792Z,59.14
2018-03-07T07:18:50.047Z,59.80
2018-03-07T07:21:19.088Z,59.21
2018-03-07T07:23:47.350Z,59.96
2018-03-07T07:26:16.379Z,60.27
2018-03-07T07:28:44.640Z,59.40
2018-03-07T07:31:13.674Z,60.01
2018-03-07T07:33:41.941Z,60.18
2018-03-07T07:36:10.973Z,60.26
2018-03-07T07:38:43.748Z,59.78
2018-03-07T07:41:12.025Z,59.73
2018-03-07T07:43:41.052Z,59.15
2018-03-07T07:46:09.324Z,59.15
2018-03-07T07:48:38.360Z,59.75
2018-03-07T07:51:06.624Z,60.02
2018-03-07T07:53:35.651Z,59.97
2018-03-07T07:56:03.919Z,60.35
2018-03-07T07:58:32.188Z,60.46
2018-03-07T08:01:02.147Z,60.22
2018-03-07T08:03:30.411Z,59.98
2018-03-07T08:05:59.496Z,59.80
2018-03-07T08:08:27.706Z,60.62
2018-03-07T08:10:56.739Z,60.54
2018-03-07T08:13:25.000Z,61.02
2018-03-07T08:15:54.045Z,62.15
2018-03-07T08:18:22.313Z,62.00
2018-03-07T08:20:51.413Z,61.84
2018-03-07T08:23:20.440Z,62.48
2018-03-07T08:25:48.711Z,63.44
2018-03-07T08:28:16.981Z,64.42
2018-03-07T08:30:45.247Z,65.67
2018-03-07T08:33:13.615Z,67.04
2018-03-07T08:35:41.935Z,65.21
2018-03-07T08:38:10.151Z,63.90
2018-03-07T08:40:39.180Z,62.54
2018-03-07T08:43:07.440Z,62.19
2018-03-07T08:45:36.481Z,61.43
2018-03-07T08:48:04.749Z,63.05
2018-03-07T08:50:33.780Z,63.07
2018-03-07T08:53:02.036Z,62.64
2018-03-07T08:55:31.070Z,61.83
2018-03-07T08:57:59.328Z,60.37
2018-03-07T09:00:28.358Z,59.74
2018-03-07T09:02:56.619Z,59.51
2018-03-07T09:05:25.651Z,59.10
2018-03-07T09:07:53.915Z,57.88
2018-03-07T09:10:22.951Z,58.31
2018-03-07T09:12:51.219Z,58.51
2018-03-07T09:15:20.259Z,60.03
2018-03-07T09:17:48.515Z,60.01
2018-03-07T09:20:17.556Z,58.88
2018-03-07T09:22:45.819Z,58.12
2018-03-07T09:25:14.092Z,60.22
2018-03-07T09:27:43.127Z,59.71
2018-03-07T09:30:12.163Z,58.78
2018-03-07T09:32:40.420Z,59.62
2018-03-07T09:35:08.695Z,60.43
2018-03-07T09:37:36.956Z,60.78
2018-03-07T09:40:05.353Z,60.87
2018-03-07T09:42:34.380Z,60.50
2018-03-07T09:45:02.829Z,60.07
2018-03-07T09:47:31.098Z,61.66
2018-03-07T09:49:59.363Z,62.87
2018-03-07T09:52:27.624Z,62.78
2018-03-07T09:54:56.656Z,61.92
2018-03-07T09:57:24.927Z,61.52
2018-03-07T09:59:53.948Z,59.71
2018-03-07T10:02:22.219Z,59.14
2018-03-07T10:04:51.250Z,59.83
2018-03-07T10:07:19.523Z,61.55
2018-03-07T10:09:47.780Z,63.22
2018-03-07T10:12:16.047Z,63.47
2018-03-07T10:14:44.313Z,63.83
2018-03-07T10:17:12.588Z,63.29
2018-03-07T10:19:41.609Z,63.29
2018-03-07T10:22:09.880Z,62.94
2018-03-07T10:24:38.136Z,63.88
2018-03-07T10:27:06.412Z,64.38
2018-03-07T10:29:34.679Z,63.54
2018-03-07T10:32:02.935Z,62.41
2018-03-07T10:34:31.193Z,62.19
2018-03-07T10:37:00.225Z,61.93
2018-03-07T10:39:28.487Z,62.08
2018-03-07T10:41:57.524Z,62.23
2018-03-07T10:44:25.783Z,64.19
2018-03-07T10:46:54.828Z,65.42
2018-03-07T10:49:23.087Z,64.94
2018-03-07T10:51:52.128Z,65.33
2018-03-07T10:54:20.387Z,64.47
2018-03-07T10:56:49.887Z,63.76
2018-03-07T10:59:18.911Z,63.63
2018-03-07T11:01:47.951Z,64.70
2018-03-07T11:04:16.217Z,63.87
2018-03-07T11:06:44.483Z,63.77
2018-03-07T11:09:13.508Z,62.18
2018-03-07T11:11:41.779Z,60.48
2018-03-07T11:14:10.809Z,59.84
2018-03-07T11:16:39.079Z,60.13
2018-03-07T11:19:08.103Z,58.63
2018-03-07T11:21:36.376Z,58.38
2018-03-07T11:24:05.400Z,57.53
2018-03-07T11:26:33.671Z,56.93
2018-03-07T11:29:02.707Z,56.64
2018-03-07T11:31:30.971Z,58.52
2018-03-07T11:33:59.237Z,58.63
2018-03-07T11:36:27.508Z,59.49
2018-03-07T11:38:55.772Z,60.52
2018-03-07T11:41:24.043Z,59.60
2018-03-07T11:43:52.308Z,59.85
2018-03-07T11:46:20.588Z,60.21
2018-03-07T11:48:49.619Z,61.16
2018-03-07T11:51:17.891Z,61.77
2018-03-07T11:53:46.923Z,59.50
2018-03-07T11:56:15.192Z,58.97
2018-03-07T11:58:43.459Z,57.87
2018-03-07T12:01:11.732Z,57.96
2018-03-07T12:03:39.999Z,59.66
2018-03-07T12:06:08.272Z,60.32
2018-03-07T12:08:36.537Z,62.08
2018-03-07T12:11:04.804Z,61.09
2018-03-07T12:13:33.828Z,62.08
2018-03-07T12:16:02.108Z,62.37
2018-03-07T12:18:31.131Z,62.23
2018-03-07T12:20:59.390Z,63.20
2018-03-07T12:23:28.420Z,62.27
2018-03-07T12:25:56.675Z,62.36
2018-03-07T12:28:24.948Z,60.42
2018-03-07T12:30:53.223Z,59.70
2018-03-07T12:33:21.487Z,61.41
2018-03-07T12:35:49.752Z,62.61
2018-03-07T12:38:18.790Z,62.26
2018-03-07T12:40:47.047Z,63.39
2018-03-07T12:43:16.084Z,65.25
2018-03-07T12:45:44.343Z,65.60
2018-03-07T12:48:13.379Z,64.98
2018-03-07T12:50:41.636Z,63.03
2018-03-07T12:53:10.672Z,62.25
2018-03-07T12:55:39.696Z,60.17
2018-03-07T12:58:07.969Z,59.06
2018-03-07T13:00:36.222Z,57.37
2018-03-07T13:03:05.255Z,56.78
2018-03-07T13:05:33.519Z,55.17
2018-03-07T13:08:02.551Z,53.97
2018-03-07T13:10:30.811Z,53.29
2018-03-07T13:12:59.851Z,52.86
2018-03-07T13:15:28.101Z,52.42
2018-03-07T13:17:57.136Z,53.17
2018-03-07T13:20:25.392Z,52.32
2018-03-07T13:22:53.656Z,51.86
2018-03-07T13:25:21.917Z,51.83
2018-03-07T13:27:50.179Z,54.24
2018-03-07T13:30:18.478Z,55.03
2018-03-07T13:32:46.703Z,54.88
2018-03-07T13:35:14.963Z,56.22
2018-03-07T13:37:43.228Z,56.62
2018-03-07T13:40:12.252Z,57.10
2018-03-07T13:42:40.516Z,58.27
2018-03-07T13:45:08.771Z,58.58
2018-03-07T13:47:37.035Z,58.17
2018-03-07T13:50:06.056Z,57.46
2018-03-07T13:52:34.319Z,57.66
2018-03-07T13:55:02.576Z,57.01
2018-03-07T13:57:31.608Z,55.37
2018-03-07T13:59:59.860Z,54.75
2018-03-07T14:02:28.888Z,56.04
2018-03-07T14:04:57.156Z,55.11
2018-03-07T14:07:26.184Z,54.64
2018-03-07T14:09:54.435Z,54.74
2018-03-07T14:12:22.699Z,56.71
2018-03-07T14:14:50.961Z,55.17
2018-03-07T14:17:19.223Z,53.70
2018-03-07T14:19:48.244Z,53.20
2018-03-07T14:22:16.512Z,52.31
2018-03-07T14:24:45.535Z,52.06
2018-03-07T14:27:13.802Z,51.48
2018-03-07T14:29:42.052Z,51.95
2018-03-07T14:32:10.315Z,51.34
2018-03-07T14:34:38.579Z,50.26
2018-03-07T14:37:07.597Z,50.68
2018-03-07T14:39:35.851Z,50.68
2018-03-07T14:42:04.108Z,51.77
2018-03-07T14:44:32.372Z,52.82
2018-03-07T14:47:00.627Z,52.10
2018-03-07T14:49:30.159Z,52.22
2018-03-07T14:51:59.185Z,54.62
2018-03-07T14:54:27.452Z,55.24
2018-03-07T14:56:56.475Z,54.98
2018-03-07T14:59:25.266Z,55.87
2018-03-07T15:01:54.327Z,56.24
2018-03-07T15:04:22.593Z,56.66
2018-03-07T15:06:50.851Z,56.31
2018-03-07T15:09:19.127Z,56.58
2018-03-07T15:11:48.148Z,57.67
2018-03-07T15:14:16.420Z,58.66
2018-03-07T15:16:45.513Z,57.82
2018-03-07T15:19:13.712Z,58.39
2018-03-07T15:21:45.286Z,57.95
2018-03-07T15:24:13.740Z,59.23
2018-03-07T15:26:42.005Z,59.61
2018-03-07T15:29:10.276Z,59.09
2018-03-07T15:31:38.536Z,58.88
2018-03-07T15:34:07.572Z,58.72
2018-03-07T15:36:35.836Z,59.16
2018-03-07T15:39:04.876Z,58.41
2018-03-07T15:41:33.512Z,59.05
2018-03-07T15:44:01.790Z,58.73
2018-03-07T15:46:30.053Z,58.08
2018-03-07T15:48:58.320Z,57.77
2018-03-07T15:51:26.583Z,57.77
2018-03-07T15:53:55.613Z,57.54
2018-03-07T15:56:23.868Z,57.57
2018-03-07T15:58:52.139Z,57.71
2018-03-07T16:01:20.403Z,57.80
2018-03-07T16:03:48.677Z,57.90
2018-03-07T16:06:17.088Z,57.48
2018-03-07T16:08:45.356Z,57.41
2018-03-07T16:11:13.615Z,59.24
2018-03-07T16:13:42.652Z,62.03
2018-03-07T16:16:10.911Z,65.82
2018-03-07T16:18:39.941Z,67.40
2018-03-07T16:21:08.205Z,69.74
2018-03-07T16:23:38.319Z,70.24
2018-03-07T16:26:06.574Z,69.98
2018-03-07T16:28:35.024Z,70.13
2018-03-07T16:31:03.284Z,68.00
2018-03-07T16:33:31.552Z,67.31
2018-03-07T16:35:59.818Z,67.28
2018-03-07T16:38:28.840Z,69.63
2018-03-07T16:40:57.106Z,68.99
2018-03-07T16:43:25.366Z,70.45
2018-03-07T16:45:54.399Z,70.85
2018-03-07T16:48:22.656Z,70.66
2018-03-07T16:50:51.688Z,70.29
2018-03-07T16:53:19.942Z,68.73
2018-03-07T16:55:48.971Z,70.16
2018-03-07T16:58:17.224Z,69.52
2018-03-07T17:00:45.495Z,69.71
2018-03-07T17:03:13.747Z,71.35
2018-03-07T17:05:42.037Z,71.10
2018-03-07T17:08:10.292Z,71.09
2018-03-07T17:10:39.312Z,72.05
2018-03-07T17:13:08.343Z,73.39
2018-03-07T17:15:36.603Z,72.53
2018-03-07T17:18:05.631Z,72.99
2018-03-07T17:20:33.896Z,72.81
2018-03-07T17:23:02.931Z,73.35
2018-03-07T17:25:31.187Z,71.57
2018-03-07T17:28:00.228Z,71.12
2018-03-07T17:30:28.486Z,71.89
2018-03-07T17:32:57.515Z,71.02
2018-03-07T17:35:25.764Z,71.04
2018-03-07T17:37:54.032Z,69.98
2018-03-07T17:40:22.289Z,70.42
2018-03-07T17:42:51.213Z,69.29
2018-03-07T17:45:26.668Z,70.95
2018-03-07T17:47:54.932Z,71.63
2018-03-07T17:50:23.187Z,72.52
2018-03-07T17:52:51.458Z,74.20
2018-03-07T17:58:03.131Z,74.16
2018-03-07T18:00:32.144Z,73.83
2018-03-07T18:03:01.172Z,72.81
2018-03-07T18:05:29.436Z,72.92
2018-03-07T18:07:58.479Z,71.47
2018-03-07T18:10:27.499Z,69.88
2018-03-07T18:12:55.763Z,69.18
2018-03-07T18:15:24.016Z,68.64
2018-03-07T18:17:53.052Z,69.16
2018-03-07T18:20:21.307Z,68.72
2018-03-07T18:22:50.336Z,67.68
2018-03-07T18:25:18.591Z,67.93
2018-03-07T18:27:46.852Z,67.65
2018-03-07T18:30:15.867Z,68.31
2018-03-07T18:32:44.136Z,67.46
2018-03-07T18:35:12.552Z,67.93
2018-03-07T18:37:40.815Z,67.40
2018-03-07T18:40:09.084Z,67.21
2018-03-07T18:42:37.348Z,66.81
2018-03-07T18:45:06.383Z,66.92
2018-03-07T18:47:34.640Z,66.78
2018-03-07T18:50:03.692Z,66.22
2018-03-07T18:52:31.940Z,65.60
2018-03-07T18:55:00.975Z,65.43
2018-03-07T18:57:29.232Z,65.57
2018-03-07T18:59:58.266Z,65.77
2018-03-07T19:02:26.523Z,65.62
2018-03-07T19:04:55.559Z,65.49
2018-03-07T19:07:23.816Z,65.41
2018-03-07T19:09:52.848Z,65.48
2018-03-07T19:12:21.107Z,65.23
2018-03-07T19:14:50.140Z,65.09
2018-03-07T19:17:18.395Z,64.94
2018-03-07T19:19:46.663Z,64.90
2018-03-07T19:22:14.928Z,64.69
2018-03-07T19:24:43.195Z,64.59
2018-03-07T19:27:11.464Z,64.71
2018-03-07T19:29:40.495Z,64.65
2018-03-07T19:32:08.757Z,64.75
2018-03-07T19:34:37.796Z,65.08
2018-03-07T19:37:06.048Z,65.91
2018-03-07T19:39:35.083Z,66.00
2018-03-07T19:42:03.340Z,67.17
2018-03-07T19:44:32.371Z,68.17
2018-03-07T19:47:00.627Z,67.59
2018-03-07T19:49:28.891Z,68.05
2018-03-07T19:51:57.157Z,68.57
2018-03-07T19:54:25.444Z,68.48
2018-03-07T19:56:54.428Z,68.12
2018-03-07T19:59:23.461Z,69.78
2018-03-07T20:01:51.718Z,70.99
2018-03-07T20:04:19.971Z,69.17
2018-03-07T20:06:48.239Z,67.93
2018-03-07T20:09:16.493Z,67.00
2018-03-07T20:11:44.755Z,66.39
2018-03-07T20:14:13.775Z,66.02
2018-03-07T20:16:42.031Z,66.47
2018-03-07T20:19:10.292Z,66.20
2018-03-07T20:21:38.559Z,66.75
2018-03-07T20:24:06.843Z,67.24
2018-03-07T20:26:35.108Z,69.16
2018-03-07T20:29:04.134Z,72.05
2018-03-07T20:31:32.481Z,74.09
2018-03-07T20:34:01.415Z,73.90
2018-03-07T20:36:30.447Z,73.46
2018-03-07T20:38:58.704Z,72.50
2018-03-07T20:41:27.749Z,71.02
2018-03-07T20:43:56.003Z,72.91
2018-03-07T20:46:24.268Z,72.72
2018-03-07T20:48:52.519Z,71.50
2018-03-07T20:51:20.783Z,71.07
2018-03-07T20:53:49.036Z,71.25
2018-03-07T20:56:17.300Z,70.51
2018-03-07T20:58:45.552Z,69.75
2018-03-07T21:01:13.820Z,69.03
2018-03-07T21:03:42.835Z,68.90
2018-03-07T21:06:11.112Z,68.21
2018-03-07T21:08:40.133Z,70.88
2018-03-07T21:11:08.400Z,71.00
2018-03-07T21:13:37.419Z,70.77
2018-03-07T21:16:05.685Z,71.68
2018-03-07T21:18:33.936Z,70.21
2018-03-07T21:21:02.212Z,69.59
2018-03-07T21:23:30.464Z,69.28
2018-03-07T21:25:59.496Z,70.63
2018-03-07T21:28:27.744Z,71.34
2018-03-07T21:30:56.576Z,73.50
2018-03-07T21:33:24.832Z,74.89
2018-03-07T21:35:53.099Z,74.95
2018-03-07T21:38:21.351Z,75.57
2018-03-07T21:40:49.611Z,75.71
2018-03-07T21:43:18.631Z,74.02
2018-03-07T21:45:46.891Z,74.58
2018-03-07T21:48:15.147Z,74.41
2018-03-07T21:50:43.412Z,73.26
2018-03-07T21:53:11.663Z,76.06
2018-03-07T21:55:40.693Z,75.43
2018-03-07T21:58:08.947Z,73.94
2018-03-07T22:00:37.211Z,74.04
2018-03-07T22:03:05.471Z,74.12
2018-03-07T22:05:33.732Z,73.61
2018-03-07T22:08:02.758Z,73.84
2018-03-07T22:10:31.016Z,72.40
2018-03-07T22:12:59.263Z,73.17
2018-03-07T22:15:27.524Z,73.52
2018-03-07T22:17:55.779Z,73.38
2018-03-07T22:20:24.816Z,75.08
2018-03-07T22:23:02.967Z,73.89
2018-03-07T22:25:31.228Z,73.79
2018-03-07T22:27:59.488Z,74.06
2018-03-07T22:30:28.511Z,73.59
2018-03-07T22:32:56.767Z,73.17
2018-03-07T22:35:25.028Z,74.00
2018-03-07T22:37:53.312Z,73.96
2018-03-07T22:40:21.548Z,73.17
2018-03-07T22:42:50.581Z,72.71
2018-03-07T22:45:18.846Z,73.94
2018-03-07T22:47:47.859Z,74.20
2018-03-07T22:50:16.891Z,71.99
2018-03-07T22:52:45.151Z,72.60
2018-03-07T22:55:14.175Z,74.29
2018-03-07T22:57:42.436Z,73.69
2018-03-07T23:00:25.876Z,74.61
2018-03-07T23:02:54.131Z,74.29
2018-03-07T23:05:22.416Z,75.61
2018-03-07T23:07:50.667Z,75.33
2018-03-07T23:10:18.919Z,75.90
2018-03-07T23:12:47.183Z,76.67
2018-03-07T23:15:15.432Z,77.93
2018-03-07T23:17:43.699Z,78.00
2018-03-07T23:20:12.717Z,77.88
2018-03-07T23:22:41.747Z,79.23
2018-03-07T23:25:10.009Z,78.16
2018-03-07T23:27:39.040Z,78.66
2018-03-07T23:30:07.295Z,79.95
2018-03-07T23:32:36.334Z,80.18
2018-03-07T23:35:04.579Z,80.62
2018-03-07T23:37:32.866Z,79.35
2018-03-07T23:40:01.095Z,79.91
2018-03-07T23:42:29.359Z,80.97
2018-03-07T23:44:58.375Z,80.49
2018-03-07T23:47:26.635Z,80.01
2018-03-07T23:49:54.891Z,81.09
2018-03-07T23:52:23.162Z,80.20
2018-03-07T23:54:51.419Z,81.98
2018-03-07T23:57:20.447Z,81.88
2018-03-07T23:59:48.716Z,81.19
